Time;durP1;ratioP1;P1;durP2;ratioP2;P2;SDS_P1;SDS_P2;PMS_P1;PMS_P2;Temp;Humidity;BMP_temperature;BMP_pressure;BME280_temperature;BME280_humidity;BME280_pressure;Samples;Min_cycle;Max_cycle;Signal;HPM_P1;HPM_P2
2022/07/28 00:01:27;;;;;;;4.18;1.10;;;;;;;20.72;39.43;101054.09;5023627;28;20057;-66
2022/07/28 00:03:54;;;;;;;4.00;1.20;;;;;;;20.86;39.19;101045.13;5030076;28;20060;-67
2022/07/28 00:06:21;;;;;;;6.00;1.08;;;;;;;20.61;40.01;101046.66;5023863;28;20045;-67
2022/07/28 00:08:49;;;;;;;8.02;1.35;;;;;;;20.60;39.75;101040.28;5044978;28;20429;-66
2022/07/28 00:11:16;;;;;;;4.18;1.05;;;;;;;20.71;39.50;101037.66;5023160;28;20057;-65
2022/07/28 00:13:43;;;;;;;6.80;1.33;;;;;;;20.66;39.59;101043.59;5021131;28;20522;-67
2022/07/28 00:16:11;;;;;;;7.20;1.27;;;;;;;20.52;39.85;101041.31;5049734;28;20497;-67
2022/07/28 00:18:48;;;;;;;6.25;1.10;;;;;;;20.47;40.13;101035.25;5033745;28;20053;-67
2022/07/28 00:21:15;;;;;;;4.53;1.10;;;;;;;20.48;40.16;101039.66;5029348;28;20501;-66
2022/07/28 00:23:43;;;;;;;6.00;1.42;;;;;;;20.34;40.01;101033.78;5025452;28;20050;-66
2022/07/28 00:26:13;;;;;;;5.43;1.35;;;;;;;20.39;40.06;101025.91;5045370;28;20042;-66
2022/07/28 00:28:41;;;;;;;6.35;1.05;;;;;;;20.43;40.13;101026.78;5042420;28;20161;-66
2022/07/28 00:31:08;;;;;;;3.63;1.15;;;;;;;20.35;40.64;101016.63;5021663;28;20045;-66
2022/07/28 00:33:40;;;;;;;5.20;1.00;;;;;;;20.36;40.33;101017.44;5022086;28;20053;-66
2022/07/28 00:36:08;;;;;;;4.95;1.20;;;;;;;20.20;40.68;101009.16;5022786;28;20615;-66
2022/07/28 00:38:39;;;;;;;5.10;1.10;;;;;;;20.28;40.56;101010.91;5026529;28;20041;-66
2022/07/28 00:41:11;;;;;;;4.32;1.17;;;;;;;20.22;40.58;101006.00;5049717;28;20485;-70
2022/07/28 00:43:45;;;;;;;8.10;1.10;;;;;;;20.29;40.50;101004.13;5032039;28;20064;-71
2022/07/28 00:46:15;;;;;;;7.45;0.90;;;;;;;20.40;40.13;101007.91;5033713;28;20057;-71
2022/07/28 00:48:44;;;;;;;4.60;1.30;;;;;;;20.24;40.40;101000.84;5020837;28;20646;-67
2022/07/28 00:51:13;;;;;;;7.68;1.40;;;;;;;20.23;40.56;101002.81;5031847;28;20056;-66
2022/07/28 00:53:41;;;;;;;4.10;1.42;;;;;;;20.17;40.75;101003.50;5028257;28;20065;-66
2022/07/28 00:56:09;;;;;;;2.75;1.02;;;;;;;20.26;40.64;101004.06;5041405;28;20504;-66
2022/07/28 00:58:37;;;;;;;5.05;1.10;;;;;;;19.97;41.07;101000.69;5032683;28;20053;-66
2022/07/28 01:01:07;;;;;;;7.03;1.38;;;;;;;20.07;40.95;100996.47;5021788;28;20042;-66
2022/07/28 01:03:39;;;;;;;5.13;1.27;;;;;;;20.20;40.81;100991.56;5031599;28;20060;-71
2022/07/28 01:06:22;;;;;;;3.45;1.10;;;;;;;20.19;40.79;100989.97;5029934;28;20061;-70
2022/07/28 01:09:14;;;;;;;1.92;0.93;;;;;;;20.37;40.81;100980.69;5021445;28;20432;-66
2022/07/28 01:11:45;;;;;;;4.15;1.38;;;;;;;20.45;40.20;100987.22;5052126;28;20053;-70
2022/07/28 01:14:25;;;;;;;4.68;1.00;;;;;;;20.17;40.63;100982.72;5034219;28;20544;-66
2022/07/28 01:17:01;;;;;;;3.65;0.98;;;;;;;20.21;40.81;100984.81;5020845;28;20073;-67
2022/07/28 01:19:39;;;;;;;4.40;1.35;;;;;;;20.17;41.09;100971.53;5041244;28;20376;-71
2022/07/28 01:22:10;;;;;;;7.38;1.13;;;;;;;20.23;41.07;100969.25;5031546;28;20045;-67
2022/07/28 01:24:47;;;;;;;9.75;1.38;;;;;;;20.13;41.00;100981.84;5031502;28;20407;-66
2022/07/28 01:27:48;;;;;;;4.88;0.98;;;;;;;20.18;41.14;100983.53;5019425;28;20049;-66
2022/07/28 01:30:33;;;;;;;4.10;1.27;;;;;;;20.07;41.26;100991.69;5047004;28;20064;-71
2022/07/28 01:33:14;;;;;;;2.45;0.95;;;;;;;20.01;41.33;100973.59;5015242;28;20795;-66
2022/07/28 01:35:50;;;;;;;6.78;1.30;;;;;;;20.06;41.38;100981.72;5033145;28;20076;-66
2022/07/28 01:38:18;;;;;;;7.63;1.17;;;;;;;20.13;41.32;100975.44;5032050;28;20511;-70
2022/07/28 01:40:46;;;;;;;9.07;1.27;;;;;;;20.04;41.39;100975.66;5022759;28;20405;-70
2022/07/28 01:43:17;;;;;;;4.40;1.20;;;;;;;20.06;41.11;100976.13;5035935;28;20053;-70
2022/07/28 01:45:45;;;;;;;2.65;1.00;;;;;;;19.94;41.33;100972.66;5035943;28;20057;-66
2022/07/28 01:48:14;;;;;;;4.63;1.13;;;;;;;19.98;41.43;100965.13;5030417;28;20057;-66
2022/07/28 01:50:43;;;;;;;5.22;1.42;;;;;;;20.21;41.20;100971.59;5008116;28;20046;-66
2022/07/28 01:53:12;;;;;;;5.22;0.80;;;;;;;20.15;41.21;100970.28;5044956;28;20046;-66
2022/07/28 01:55:42;;;;;;;3.23;1.20;;;;;;;20.12;41.36;100974.63;5029515;28;20061;-66
2022/07/28 01:58:12;;;;;;;5.40;1.50;;;;;;;20.06;41.67;100964.94;5046071;28;20413;-69
2022/07/28 02:00:41;;;;;;;3.97;1.13;;;;;;;20.14;41.20;100963.88;5032301;28;20050;-70
2022/07/28 02:03:10;;;;;;;3.65;1.17;;;;;;;20.17;41.26;100953.16;5044807;28;20046;-66
2022/07/28 02:05:38;;;;;;;8.50;1.30;;;;;;;20.12;41.33;100960.63;5062978;28;20057;-70
2022/07/28 02:08:07;;;;;;;8.30;1.70;;;;;;;20.01;41.54;100956.03;5056801;28;20053;-71
2022/07/28 02:10:34;;;;;;;6.47;1.00;;;;;;;20.17;41.55;100960.34;5051839;28;20053;-70
2022/07/28 02:13:02;;;;;;;5.75;1.10;;;;;;;20.19;41.52;100956.38;5036769;28;20064;-70
2022/07/28 02:15:30;;;;;;;7.93;1.35;;;;;;;20.23;41.35;100948.84;5034428;28;20056;-70
2022/07/28 02:17:59;;;;;;;5.13;1.08;;;;;;;20.22;41.35;100942.47;5026560;28;20045;-66
2022/07/28 02:20:27;;;;;;;6.65;1.25;;;;;;;19.97;41.63;100941.97;5035041;28;20061;-66
2022/07/28 02:22:55;;;;;;;3.15;0.82;;;;;;;20.07;41.66;100940.53;5049501;28;20088;-70
2022/07/28 02:25:23;;;;;;;2.72;1.00;;;;;;;20.08;41.33;100937.38;5027210;28;20058;-70
2022/07/28 02:28:02;;;;;;;4.93;1.33;;;;;;;20.10;41.42;100931.44;5035261;28;20045;-70
2022/07/28 02:30:37;;;;;;;5.13;1.20;;;;;;;20.08;41.78;100933.78;5031248;28;20046;-66
2022/07/28 02:33:17;;;;;;;4.95;1.10;;;;;;;20.19;41.43;100922.81;5032973;28;20053;-66
2022/07/28 02:36:03;;;;;;;11.43;1.55;;;;;;;19.93;42.26;100931.88;5035003;28;20523;-71
2022/07/28 02:38:40;;;;;;;5.05;1.10;;;;;;;19.89;42.18;100931.81;5024361;28;20061;-71
2022/07/28 02:41:13;;;;;;;5.93;1.10;;;;;;;19.89;42.07;100936.63;5021741;28;20046;-70
2022/07/28 02:43:44;;;;;;;3.35;1.08;;;;;;;19.91;42.20;100929.47;5025683;28;20060;-66
2022/07/28 02:46:19;;;;;;;4.85;0.93;;;;;;;19.89;42.42;100933.84;5057848;28;20069;-66
2022/07/28 02:48:51;;;;;;;4.40;1.30;;;;;;;19.66;42.72;100928.19;5039126;28;20412;-72
2022/07/28 02:51:22;;;;;;;8.85;1.75;;;;;;;19.74;42.49;100924.34;5019481;28;20041;-69
2022/07/28 02:53:50;;;;;;;7.13;1.20;;;;;;;19.86;42.53;100920.56;5023669;28;20072;-70
2022/07/28 02:56:18;;;;;;;8.88;1.50;;;;;;;19.98;42.03;100934.38;5060993;28;20054;-70
2022/07/28 02:58:45;;;;;;;7.78;1.30;;;;;;;19.84;42.57;100929.34;5014946;28;20141;-71
2022/07/28 03:01:16;;;;;;;7.70;1.40;;;;;;;19.56;43.07;100925.19;5038080;28;20049;-71
2022/07/28 03:03:45;;;;;;;5.90;1.48;;;;;;;19.31;43.83;100921.88;5005711;28;20053;-67
2022/07/28 03:06:15;;;;;;;4.30;1.00;;;;;;;19.36;43.52;100927.16;5027806;28;20050;-70
2022/07/28 03:08:43;;;;;;;4.38;1.33;;;;;;;19.47;43.54;100919.84;5032315;28;20049;-66
2022/07/28 03:11:12;;;;;;;8.10;1.20;;;;;;;19.55;43.55;100927.16;5034544;28;20042;-66
2022/07/28 03:13:39;;;;;;;10.35;1.33;;;;;;;19.61;43.49;100922.09;5034409;28;20067;-66
2022/07/28 03:16:07;;;;;;;5.85;1.30;;;;;;;19.69;43.04;100921.88;5025645;28;20596;-66
2022/07/28 03:18:37;;;;;;;4.78;0.90;;;;;;;19.76;43.10;100922.00;5029564;28;20049;-69
2022/07/28 03:21:05;;;;;;;7.07;1.60;;;;;;;19.77;42.76;100920.81;5021759;28;20065;-66
2022/07/28 03:23:37;;;;;;;5.82;1.27;;;;;;;19.81;42.82;100927.28;5035152;28;20060;-66
2022/07/28 03:26:11;;;;;;;4.78;1.15;;;;;;;19.83;42.64;100930.53;5032377;28;20057;-67
2022/07/28 03:28:38;;;;;;;7.28;1.10;;;;;;;19.79;42.55;100926.84;5021696;28;20161;-66
2022/07/28 03:31:08;;;;;;;4.18;1.20;;;;;;;19.86;42.82;100924.19;5014328;28;20409;-70
2022/07/28 03:33:37;;;;;;;5.55;1.30;;;;;;;19.71;42.55;100921.50;5027264;28;20045;-70
2022/07/28 03:36:12;;;;;;;8.45;1.58;;;;;;;19.75;42.84;100925.16;5034914;28;20064;-66
2022/07/28 03:38:45;;;;;;;4.70;1.20;;;;;;;19.94;42.49;100916.75;5036029;28;20057;-66
2022/07/28 03:41:12;;;;;;;3.60;1.40;;;;;;;20.06;42.57;100917.38;5024897;28;20058;-66
2022/07/28 03:43:40;;;;;;;3.35;1.20;;;;;;;19.88;42.77;100919.03;5038441;28;20061;-66
2022/07/28 03:46:07;;;;;;;11.07;1.30;;;;;;;19.88;42.48;100924.63;5032528;28;20676;-66
2022/07/28 03:48:39;;;;;;;8.40;1.40;;;;;;;19.97;42.42;100922.41;5021823;28;20062;-66
2022/07/28 03:51:07;;;;;;;6.20;1.23;;;;;;;19.74;42.98;100917.94;5049916;28;20053;-66
2022/07/28 03:53:34;;;;;;;6.13;1.58;;;;;;;19.56;43.13;100914.00;5034703;28;20064;-71
2022/07/28 03:56:02;;;;;;;3.92;1.30;;;;;;;19.83;43.22;100915.72;5033607;28;20049;-67
2022/07/28 03:58:30;;;;;;;7.80;1.20;;;;;;;19.68;43.32;100917.44;5021410;28;20061;-67
2022/07/28 04:00:57;;;;;;;7.25;1.35;;;;;;;19.61;43.47;100916.50;5034394;28;20050;-70
2022/07/28 04:03:25;;;;;;;6.72;2.00;;;;;;;19.37;43.87;100923.19;5021732;28;20075;-70
2022/07/28 04:06:14;;;;;;;6.45;1.80;;;;;;;19.36;43.97;100921.59;5046843;28;20065;-69
2022/07/28 04:08:43;;;;;;;5.22;1.52;;;;;;;19.26;44.08;100921.34;5028280;28;20049;-67
2022/07/28 04:11:11;;;;;;;4.93;1.50;;;;;;;19.24;44.35;100920.88;5032165;28;20059;-71
2022/07/28 04:13:39;;;;;;;7.93;1.75;;;;;;;18.96;45.27;100932.25;5024228;28;20053;-71
2022/07/28 04:16:06;;;;;;;6.40;1.52;;;;;;;19.20;44.98;100928.38;5019982;28;20053;-66
2022/07/28 04:18:34;;;;;;;4.63;1.40;;;;;;;19.21;44.63;100924.41;5064833;28;20492;-66
2022/07/28 04:21:02;;;;;;;7.38;1.38;;;;;;;19.34;44.84;100925.91;5032896;28;20492;-71
2022/07/28 04:23:29;;;;;;;11.27;1.55;;;;;;;19.15;44.57;100918.31;5034371;28;20045;-71
2022/07/28 04:25:57;;;;;;;6.05;1.77;;;;;;;18.96;45.27;100912.69;5011552;28;20066;-70
2022/07/28 04:28:24;;;;;;;8.35;1.85;;;;;;;19.05;45.08;100928.09;5032062;28;20048;-71
2022/07/28 04:30:52;;;;;;;11.52;1.85;;;;;;;18.95;45.42;100914.66;5023105;28;20041;-70
2022/07/28 04:33:19;;;;;;;6.60;1.70;;;;;;;19.02;45.18;100916.84;5031742;28;20064;-70
2022/07/28 04:35:46;;;;;;;6.63;1.50;;;;;;;18.96;45.37;100924.69;5021425;28;20056;-71
2022/07/28 04:38:16;;;;;;;7.03;1.50;;;;;;;18.85;45.89;100920.00;5028447;28;20058;-70
2022/07/28 04:40:45;;;;;;;5.47;1.67;;;;;;;18.97;45.21;100917.91;5041073;28;20050;-68
2022/07/28 04:43:12;;;;;;;6.03;1.30;;;;;;;18.93;45.48;100905.84;5003507;28;20080;-71
2022/07/28 04:45:40;;;;;;;10.43;1.67;;;;;;;19.00;45.63;100910.81;5034076;28;20050;-71
2022/07/28 04:48:20;;;;;;;;;;;;;;;19.25;45.19;100903.75;5025853;28;20054;-71
2022/07/28 04:50:49;;;;;;;5.10;1.40;;;;;;;19.15;44.99;100911.91;5016370;28;19929;-71
2022/07/28 04:53:17;;;;;;;9.02;1.65;;;;;;;19.18;45.15;100908.41;5033900;28;20068;-71
2022/07/28 04:55:45;;;;;;;6.72;1.17;;;;;;;19.30;45.33;100909.06;5021133;28;20240;-71
2022/07/28 04:58:12;;;;;;;9.13;1.40;;;;;;;19.17;45.15;100913.16;5023457;28;20054;-67
2022/07/28 05:00:43;;;;;;;9.80;1.45;;;;;;;19.07;45.39;100908.97;5030390;28;20056;-67
2022/07/28 05:03:12;;;;;;;8.60;1.73;;;;;;;19.03;45.36;100913.69;5030767;28;20508;-70
2022/07/28 05:05:57;;;;;;;14.13;1.67;;;;;;;18.96;45.30;100913.53;5113085;27;21085;-71
2022/07/28 05:08:24;;;;;;;6.72;1.73;;;;;;;18.93;45.79;100916.22;5107047;28;20056;-71
2022/07/28 05:10:55;;;;;;;3.97;1.35;;;;;;;18.92;45.87;100914.59;5099033;28;20680;-71
2022/07/28 05:13:23;;;;;;;5.78;1.58;;;;;;;18.88;45.97;100914.50;5111962;28;20058;-67
2022/07/28 05:15:55;;;;;;;13.10;2.35;;;;;;;18.87;46.06;100914.88;5108674;28;20412;-68
2022/07/28 05:18:22;;;;;;;12.25;1.65;;;;;;;18.63;46.63;100915.94;5101695;28;20055;-66
2022/07/28 05:20:49;;;;;;;9.95;1.73;;;;;;;18.78;46.38;100917.88;5090232;28;20036;-66
2022/07/28 05:23:17;;;;;;;7.22;1.73;;;;;;;18.83;46.61;100916.78;5056151;28;20056;-66
2022/07/28 05:25:45;;;;;;;12.25;1.90;;;;;;;19.00;46.24;100910.81;5071117;28;20059;-71
2022/07/28 05:28:12;;;;;;;12.77;1.90;;;;;;;19.08;46.03;100923.72;5102781;28;20056;-67
2022/07/28 05:30:39;;;;;;;14.18;2.05;;;;;;;19.08;45.97;100920.94;5113431;28;20055;-72
2022/07/28 05:33:07;;;;;;;11.40;1.77;;;;;;;19.04;45.84;100912.50;5102193;28;20052;-70
2022/07/28 05:35:34;;;;;;;15.82;2.35;;;;;;;19.20;45.88;100911.59;5106076;28;20050;-67
2022/07/28 05:38:02;;;;;;;17.05;2.03;;;;;;;19.27;45.80;100915.38;5126726;28;20062;-67
2022/07/28 05:40:36;;;;;;;11.20;2.20;;;;;;;19.25;45.52;100909.34;5083357;28;20391;-67
2022/07/28 05:43:03;;;;;;;6.57;1.80;;;;;;;19.11;46.00;100909.03;5106557;28;20056;-67
2022/07/28 05:45:32;;;;;;;10.43;1.90;;;;;;;19.18;46.07;100913.97;5095215;28;20537;-66
2022/07/28 05:48:00;;;;;;;15.90;1.80;;;;;;;19.13;45.52;100919.84;5090793;28;20048;-72
2022/07/28 05:50:27;;;;;;;17.50;2.42;;;;;;;19.18;45.72;100911.97;5090973;28;20052;-67
2022/07/28 05:52:54;;;;;;;12.95;2.38;;;;;;;19.24;45.98;100910.53;5089680;28;20403;-67
2022/07/28 05:55:22;;;;;;;10.35;1.85;;;;;;;19.31;45.68;100909.91;5092469;28;20048;-68
2022/07/28 05:57:50;;;;;;;17.27;2.30;;;;;;;19.21;45.77;100907.66;5083266;28;20052;-66
2022/07/28 06:00:19;;;;;;;11.98;2.00;;;;;;;19.20;45.72;100906.84;5091144;28;20052;-71
2022/07/28 06:02:48;;;;;;;15.07;2.13;;;;;;;18.96;45.84;100910.72;5090559;28;20052;-72
2022/07/28 06:05:22;;;;;;;10.20;2.55;;;;;;;19.18;45.59;100911.19;5090748;28;20048;-72
2022/07/28 06:07:50;;;;;;;9.30;1.65;;;;;;;19.36;45.76;100910.41;5090495;28;20044;-71
2022/07/28 06:10:20;;;;;;;7.82;1.92;;;;;;;19.47;45.69;100914.25;5090623;28;20051;-72
2022/07/28 06:12:54;;;;;;;9.10;1.80;;;;;;;19.40;45.45;100916.06;5072667;28;20053;-73
2022/07/28 06:15:24;;;;;;;14.43;2.47;;;;;;;19.54;45.31;100917.19;5086177;28;20064;-71
2022/07/28 06:17:54;;;;;;;12.23;2.42;;;;;;;19.52;45.27;100913.13;5079340;28;20514;-72
2022/07/28 06:20:23;;;;;;;7.50;2.30;;;;;;;19.71;44.85;100913.91;5075840;28;20048;-72
2022/07/28 06:22:52;;;;;;;8.52;2.90;;;;;;;19.70;45.10;100914.28;5074705;28;20045;-72
2022/07/28 06:25:25;;;;;;;7.38;3.00;;;;;;;19.88;44.54;100912.63;5072223;28;20052;-72
2022/07/28 06:27:58;;;;;;;19.40;4.97;;;;;;;19.86;44.71;100907.41;5076566;28;20071;-73
2022/07/28 06:30:26;;;;;;;10.95;2.35;;;;;;;20.05;44.29;100912.13;5077541;28;20044;-71
2022/07/28 06:32:54;;;;;;;8.43;2.63;;;;;;;20.06;43.98;100916.56;5075875;28;20051;-74
2022/07/28 06:35:21;;;;;;;12.75;3.40;;;;;;;20.22;43.68;100913.69;5076961;28;20487;-72
2022/07/28 06:37:50;;;;;;;11.57;2.67;;;;;;;20.39;43.72;100913.97;5077622;28;20043;-71
2022/07/28 06:40:18;;;;;;;12.85;2.47;;;;;;;20.02;43.80;100910.91;5085357;28;20055;-72
2022/07/28 06:42:46;;;;;;;14.88;2.92;;;;;;;19.78;44.36;100907.66;5081498;28;21372;-67
2022/07/28 06:45:15;;;;;;;23.10;3.55;;;;;;;19.90;44.55;100905.50;5096545;28;20492;-67
2022/07/28 06:47:48;;;;;;;13.48;2.10;;;;;;;20.18;43.98;100919.22;5073307;28;20048;-66
2022/07/28 06:50:16;;;;;;;13.70;2.25;;;;;;;20.15;44.16;100917.91;5073471;28;20059;-72
2022/07/28 06:52:51;;;;;;;19.58;2.83;;;;;;;20.37;43.53;100912.72;5074295;28;20633;-71
2022/07/28 06:55:18;;;;;;;20.58;3.08;;;;;;;20.29;43.32;100922.19;5073209;28;20055;-71
2022/07/28 06:57:46;;;;;;;10.48;2.10;;;;;;;20.25;43.49;100922.13;5070373;28;20096;-72
2022/07/28 07:00:13;;;;;;;7.32;2.33;;;;;;;20.12;44.13;100921.47;5070585;28;20045;-72
2022/07/28 07:02:41;;;;;;;17.55;2.83;;;;;;;20.16;44.13;100924.38;5073099;28;20048;-69
2022/07/28 07:05:10;;;;;;;18.63;2.72;;;;;;;20.15;43.90;100919.94;5073665;28;20053;-71
2022/07/28 07:07:37;;;;;;;16.02;2.50;;;;;;;19.91;44.30;100926.66;5071518;28;20044;-69
2022/07/28 07:10:10;;;;;;;12.48;2.85;;;;;;;20.05;44.03;100931.72;5066973;28;20056;-67
2022/07/28 07:12:38;;;;;;;11.45;2.90;;;;;;;20.48;43.34;100930.50;5071567;28;20041;-71
2022/07/28 07:15:06;;;;;;;10.02;2.45;;;;;;;21.00;42.94;100924.94;5075345;28;20040;-69
2022/07/28 07:17:36;;;;;;;8.93;2.47;;;;;;;21.62;44.91;100915.75;5088685;28;20052;-53
2022/07/28 07:20:05;;;;;;;16.48;2.53;;;;;;;23.04;39.66;100913.03;5068136;28;20053;-48
2022/07/28 07:22:33;;;;;;;16.02;2.65;;;;;;;23.77;37.92;100914.59;5085251;28;20048;-47
2022/07/28 07:25:11;;;;;;;9.38;2.42;;;;;;;24.16;37.81;100913.50;5079213;28;20044;-49
2022/07/28 07:27:39;;;;;;;13.73;2.80;;;;;;;24.36;37.04;100925.97;5077487;28;20060;-48
2022/07/28 07:30:07;;;;;;;8.88;2.72;;;;;;;24.50;36.73;100917.53;5073399;28;20056;-50
2022/07/28 07:32:35;;;;;;;10.50;1.88;;;;;;;24.57;36.51;100915.91;5074193;28;20056;-49
2022/07/28 07:35:03;;;;;;;8.43;2.63;;;;;;;24.67;36.40;100921.53;5074516;28;20045;-48
2022/07/28 07:37:31;;;;;;;18.45;3.30;;;;;;;24.69;36.14;100916.34;5074705;28;20052;-49
2022/07/28 07:40:00;;;;;;;11.50;2.47;;;;;;;24.77;36.11;100908.69;5073551;28;20052;-49
2022/07/28 07:42:27;;;;;;;10.38;2.70;;;;;;;24.82;36.12;100916.72;5067320;28;20040;-46
2022/07/28 07:44:55;;;;;;;12.68;2.55;;;;;;;24.94;35.61;100913.47;5070912;28;20568;-48
2022/07/28 07:47:22;;;;;;;15.13;3.25;;;;;;;25.01;35.47;100908.63;5064173;28;20052;-49
2022/07/28 07:49:50;;;;;;;11.07;2.45;;;;;;;24.80;35.79;100905.88;5064382;28;20048;-48
2022/07/28 07:52:17;;;;;;;9.95;2.30;;;;;;;24.91;35.57;100911.47;5060298;28;20052;-51
2022/07/28 07:54:45;;;;;;;12.43;3.00;;;;;;;25.02;35.50;100910.22;5060808;28;20622;-49
2022/07/28 07:57:12;;;;;;;18.17;2.55;;;;;;;24.87;35.11;100913.50;5066001;28;20210;-47
2022/07/28 07:59:39;;;;;;;15.23;2.63;;;;;;;24.82;35.40;100911.91;5072149;28;20053;-50
2022/07/28 08:02:07;;;;;;;10.40;2.72;;;;;;;24.91;35.52;100909.47;5074215;28;20067;-51
2022/07/28 08:04:34;;;;;;;9.82;2.50;;;;;;;25.05;35.29;100901.00;5072056;28;20048;-49
2022/07/28 08:07:05;;;;;;;9.25;2.40;;;;;;;25.25;34.52;100907.75;5072429;28;20052;-49
2022/07/28 08:09:33;;;;;;;15.77;2.72;;;;;;;25.36;34.87;100905.75;5073372;28;20412;-47
2022/07/28 08:12:00;;;;;;;13.23;2.70;;;;;;;25.48;34.68;100902.47;5068150;28;20045;-47
2022/07/28 08:14:28;;;;;;;14.68;2.75;;;;;;;25.04;34.85;100907.00;5064699;28;20056;-49
2022/07/28 08:16:57;;;;;;;9.95;2.33;;;;;;;24.93;35.19;100906.25;5068100;28;20045;-51
2022/07/28 08:19:25;;;;;;;16.20;2.55;;;;;;;24.91;35.22;100895.38;5062835;28;20052;-51
2022/07/28 08:21:54;;;;;;;9.50;2.58;;;;;;;24.87;35.67;100905.03;5063644;28;20053;-50
2022/07/28 08:24:21;;;;;;;11.35;2.45;;;;;;;24.98;34.85;100900.19;5065443;28;20060;-49
2022/07/28 08:27:00;;;;;;;12.07;2.50;;;;;;;24.72;35.17;100906.28;5065071;28;20499;-50
2022/07/28 08:29:28;;;;;;;11.77;2.17;;;;;;;24.62;35.18;100901.44;5066554;28;20052;-50
2022/07/28 08:31:55;;;;;;;14.73;3.05;;;;;;;24.70;34.84;100905.88;5066920;28;20048;-50
2022/07/28 08:34:24;;;;;;;15.20;3.03;;;;;;;23.43;37.09;100911.28;5065577;28;20059;-50
2022/07/28 08:37:01;;;;;;;12.27;2.42;;;;;;;23.76;36.95;100896.91;5066627;28;20044;-48
2022/07/28 08:39:30;;;;;;;18.30;2.42;;;;;;;24.22;35.95;100897.81;5067813;28;20064;-48
2022/07/28 08:42:28;;;;;;;9.82;2.83;;;;;;;24.19;36.52;100895.00;5079765;28;20048;-50
2022/07/28 08:45:02;;;;;;;11.48;2.63;;;;;;;24.66;35.89;100894.56;5081688;28;20044;-49
2022/07/28 08:47:31;;;;;;;10.75;3.08;;;;;;;24.85;35.88;100899.81;5064002;28;20063;-48
2022/07/28 08:50:23;;;;;;;10.70;2.70;;;;;;;24.99;35.04;100896.97;5063652;28;20036;-49
2022/07/28 08:52:51;;;;;;;11.52;2.78;;;;;;;24.97;35.02;100898.56;5064789;28;20049;-50
2022/07/28 08:55:24;;;;;;;11.77;3.28;;;;;;;24.46;35.51;100891.38;5065763;28;20488;-51
2022/07/28 08:57:59;;;;;;;8.50;2.85;;;;;;;24.46;35.61;100896.22;5071883;28;20056;-50
2022/07/28 09:00:26;;;;;;;11.63;2.80;;;;;;;24.26;34.91;100895.00;5066208;28;20045;-55
2022/07/28 09:02:54;;;;;;;13.15;2.80;;;;;;;24.44;35.51;100893.78;5067521;28;20055;-50
2022/07/28 09:05:22;;;;;;;14.00;2.60;;;;;;;24.50;35.42;100895.00;5063896;28;20774;-54
2022/07/28 09:07:53;;;;;;;14.57;3.10;;;;;;;24.73;35.22;100891.78;5064724;28;20067;-50
2022/07/28 09:10:22;;;;;;;10.13;2.67;;;;;;;24.98;35.12;100886.91;5062563;28;20059;-53
2022/07/28 09:12:50;;;;;;;8.55;2.53;;;;;;;25.15;34.61;100886.03;5066018;28;20052;-54
2022/07/28 09:15:17;;;;;;;18.10;3.53;;;;;;;25.03;34.54;100886.50;5060973;28;20060;-53
2022/07/28 09:17:45;;;;;;;14.15;2.85;;;;;;;25.10;34.07;100891.28;5080718;28;20048;-50
2022/07/28 09:20:12;;;;;;;13.27;2.78;;;;;;;25.03;34.68;100896.94;5065258;28;20083;-50
2022/07/28 09:22:58;;;;;;;7.80;2.53;;;;;;;25.01;34.12;100883.28;5061020;28;20041;-48
2022/07/28 09:25:26;;;;;;;12.02;2.45;;;;;;;25.16;34.34;100886.81;5062318;28;20053;-50
2022/07/28 09:27:54;;;;;;;13.65;2.67;;;;;;;25.31;34.20;100882.75;5062627;28;20793;-49
2022/07/28 09:30:29;;;;;;;11.25;2.45;;;;;;;25.35;34.34;100886.38;5063515;28;20053;-50
2022/07/28 09:33:15;;;;;;;10.10;2.40;;;;;;;24.66;34.83;100885.31;5080632;28;20052;-47
2022/07/28 09:36:02;;;;;;;13.13;2.40;;;;;;;24.96;34.78;100888.50;5063152;28;20067;-48
2022/07/28 09:38:38;;;;;;;13.23;3.15;;;;;;;24.92;33.95;100879.25;5080023;28;20060;-50
2022/07/28 09:41:06;;;;;;;12.10;2.85;;;;;;;24.76;34.91;100878.91;5063924;28;20048;-55
2022/07/28 09:43:38;;;;;;;13.40;3.28;;;;;;;25.17;34.60;100874.34;5063916;28;20044;-51
2022/07/28 09:46:13;;;;;;;9.82;2.70;;;;;;;25.41;34.02;100873.47;5066156;28;20511;-48
2022/07/28 09:48:52;;;;;;;8.35;2.33;;;;;;;25.34;33.80;100877.09;5068850;28;20059;-52
2022/07/28 09:51:24;;;;;;;10.02;2.30;;;;;;;25.47;33.66;100871.84;5066557;28;20711;-45
2022/07/28 09:53:52;;;;;;;13.70;2.72;;;;;;;25.14;33.62;100872.38;5070095;28;20044;-51
2022/07/28 09:56:22;;;;;;;7.65;2.58;;;;;;;25.10;34.28;100869.56;5069967;28;20048;-50
2022/07/28 09:58:54;;;;;;;7.32;2.33;;;;;;;24.99;33.09;100865.16;5073158;28;20079;-49
2022/07/28 10:01:25;;;;;;;8.10;2.53;;;;;;;25.34;33.72;100865.00;5067352;28;20044;-48
2022/07/28 10:04:00;;;;;;;14.15;2.85;;;;;;;25.46;34.25;100865.41;5067702;28;20056;-51
2022/07/28 10:06:39;;;;;;;14.18;1.80;;;;;;;25.09;35.76;100864.31;5066508;28;20056;-46
2022/07/28 10:09:11;;;;;;;9.65;2.17;;;;;;;24.64;33.79;100870.81;5066729;28;20071;-49
2022/07/28 10:11:38;;;;;;;9.48;2.13;;;;;;;24.73;35.86;100862.78;5066987;28;20048;-46
2022/07/28 10:14:08;;;;;;;11.47;2.20;;;;;;;24.90;34.30;100864.75;5067998;28;20407;-48
2022/07/28 10:16:41;;;;;;;8.55;2.03;;;;;;;24.72;35.14;100864.84;5065900;28;20052;-46
2022/07/28 10:19:09;;;;;;;8.15;1.90;;;;;;;24.75;34.34;100866.03;5069586;28;20051;-48
2022/07/28 10:21:43;;;;;;;10.98;2.35;;;;;;;25.13;34.90;100860.28;5065879;28;20052;-46
2022/07/28 10:24:20;;;;;;;8.10;2.20;;;;;;;25.18;34.42;100864.66;5065395;28;20052;-45
2022/07/28 10:26:49;;;;;;;14.00;2.55;;;;;;;25.30;33.83;100856.56;5067465;28;20048;-50
2022/07/28 10:29:19;;;;;;;16.95;2.20;;;;;;;25.03;32.15;100849.84;5061945;28;20056;-45
2022/07/28 10:32:07;;;;;;;9.93;2.10;;;;;;;25.07;33.70;100861.88;5063003;28;20089;-45
2022/07/28 10:34:45;;;;;;;8.90;2.50;;;;;;;25.35;33.69;100855.34;5067562;28;20056;-47
2022/07/28 10:37:17;;;;;;;10.80;2.50;;;;;;;25.52;33.31;100841.16;5075832;28;20488;-47
2022/07/28 10:39:50;;;;;;;7.68;2.30;;;;;;;25.52;32.60;100846.03;5062379;28;20051;-45
2022/07/28 10:42:18;;;;;;;10.85;2.00;;;;;;;25.61;33.07;100839.94;5061586;28;20049;-49
2022/07/28 10:44:46;;;;;;;9.13;2.63;;;;;;;25.83;32.74;100847.84;5075761;28;20056;-47
2022/07/28 10:47:14;;;;;;;9.05;2.35;;;;;;;26.01;32.33;100848.53;5080175;28;20047;-54
2022/07/28 10:49:47;;;;;;;5.50;1.98;;;;;;;25.98;32.25;100843.69;5066595;28;20056;-49
2022/07/28 10:52:18;;;;;;;8.85;2.70;;;;;;;25.76;32.68;100853.53;5067599;28;20061;-47
2022/07/28 10:55:24;;;;;;;10.52;2.63;;;;;;;25.78;32.46;100845.47;5066506;28;20059;-50
2022/07/28 10:58:13;;;;;;;9.45;2.45;;;;;;;25.39;32.71;100853.34;5070285;28;20045;-47
2022/07/28 11:00:51;;;;;;;8.50;2.30;;;;;;;25.47;33.30;100840.81;5064398;28;20060;-47
2022/07/28 11:03:41;;;;;;;11.05;2.33;;;;;;;25.86;31.63;100834.91;5065737;28;20040;-49
2022/07/28 11:06:33;;;;;;;8.77;2.42;;;;;;;26.03;32.16;100837.63;5067665;28;20044;-50
2022/07/28 11:09:16;;;;;;;10.07;2.00;;;;;;;25.89;31.86;100843.34;5066685;28;20051;-47
2022/07/28 11:11:53;;;;;;;7.20;2.13;;;;;;;25.77;30.91;100843.84;5066187;28;20044;-48
2022/07/28 11:14:32;;;;;;;7.07;2.00;;;;;;;25.54;32.76;100832.31;5060174;28;20462;-52
2022/07/28 11:16:59;;;;;;;4.28;1.52;;;;;;;25.18;32.14;100842.13;5057664;28;20057;-48
2022/07/28 11:19:51;;;;;;;7.90;2.08;;;;;;;25.29;32.74;100846.53;5064886;28;20044;-49
2022/07/28 11:22:38;;;;;;;8.10;1.60;;;;;;;25.50;31.08;100842.81;5066121;28;20055;-48
2022/07/28 11:25:06;;;;;;;10.27;1.95;;;;;;;25.77;32.45;100837.41;5060680;28;20060;-47
2022/07/28 11:27:50;;;;;;;10.93;1.73;;;;;;;25.68;31.05;100839.88;5068169;28;20052;-49
2022/07/28 11:30:41;;;;;;;8.40;2.22;;;;;;;25.40;31.70;100840.84;5067781;28;20845;-50
2022/07/28 11:33:08;;;;;;;;;;;;;;;25.63;31.64;100832.63;5068736;28;20052;-48
2022/07/28 11:35:38;;;;;;;9.00;1.70;;;;;;;25.66;32.47;100822.56;5070901;28;19920;-47
2022/07/28 11:38:06;;;;;;;7.47;1.70;;;;;;;25.83;31.45;100828.09;5072270;28;20048;-45
2022/07/28 11:40:38;;;;;;;8.18;1.63;;;;;;;25.36;31.09;100823.94;5073676;28;20503;-48